createdAt,value
2019-01-15T00:00:37.792Z,20.87
2019-01-15T00:03:07.562Z,24.80
2019-01-15T00:05:37.168Z,18.30
2019-01-15T00:08:06.671Z,15.63
2019-01-15T00:10:36.051Z,22.57
2019-01-15T00:13:05.802Z,22.63
2019-01-15T00:15:35.238Z,19.30
2019-01-15T00:18:04.660Z,21.33
2019-01-15T00:20:34.405Z,20.53
2019-01-15T00:23:04.054Z,13.53
2019-01-15T00:25:33.535Z,17.97
2019-01-15T00:28:02.992Z,13.83
2019-01-15T00:30:32.343Z,15.03
2019-01-15T00:33:02.023Z,12.57
2019-01-15T00:35:31.317Z,14.83
2019-01-15T00:38:00.663Z,11.93
2019-01-15T00:40:30.079Z,14.30
2019-01-15T00:42:59.396Z,10.63
2019-01-15T00:45:28.755Z,12.23
2019-01-15T00:47:58.281Z,7.07
2019-01-15T00:50:27.687Z,10.10
2019-01-15T00:52:57.202Z,12.57
2019-01-15T00:55:26.694Z,10.20
2019-01-15T00:57:57.686Z,12.50
2019-01-15T01:00:27.243Z,13.90
2019-01-15T01:02:56.891Z,12.93
2019-01-15T01:05:26.925Z,10.77
2019-01-15T01:07:56.220Z,17.40
2019-01-15T01:10:25.735Z,12.83
2019-01-15T01:12:55.144Z,10.77
2019-01-15T01:15:24.725Z,11.30
2019-01-15T01:17:54.184Z,8.27
2019-01-15T01:20:23.919Z,10.87
2019-01-15T01:22:53.286Z,10.00
2019-01-15T01:25:22.594Z,10.30
2019-01-15T01:27:51.927Z,6.37
2019-01-15T01:30:24.761Z,8.43
2019-01-15T01:32:54.199Z,7.13
2019-01-15T01:35:23.579Z,5.87
2019-01-15T01:37:52.896Z,8.53
2019-01-15T01:40:22.251Z,11.40
2019-01-15T01:42:51.660Z,14.23
2019-01-15T01:45:21.226Z,13.33
2019-01-15T01:47:50.617Z,14.53
2019-01-15T01:50:20.047Z,12.87
2019-01-15T01:52:49.263Z,9.73
2019-01-15T01:55:18.590Z,10.37
2019-01-15T01:57:48.208Z,13.40
2019-01-15T02:00:21.586Z,5.93
2019-01-15T02:02:51.410Z,13.40
2019-01-15T02:05:20.768Z,9.30
2019-01-15T02:07:50.081Z,10.37
2019-01-15T02:10:20.815Z,12.70
2019-01-15T02:12:50.773Z,9.40
2019-01-15T02:15:25.023Z,14.73
2019-01-15T02:17:54.656Z,11.90
2019-01-15T02:20:24.079Z,9.77
2019-01-15T02:22:53.511Z,15.00
2019-01-15T02:25:23.043Z,10.57
2019-01-15T02:27:54.462Z,9.83
2019-01-15T02:30:26.052Z,11.17
2019-01-15T02:32:55.479Z,7.60
2019-01-15T02:35:24.721Z,14.23
2019-01-15T02:37:54.103Z,11.83
2019-01-15T02:40:23.414Z,14.83
2019-01-15T02:42:52.948Z,13.53
2019-01-15T02:45:22.935Z,12.80
2019-01-15T02:47:52.352Z,12.70
2019-01-15T02:50:22.827Z,15.70
2019-01-15T02:52:52.152Z,7.20
2019-01-15T02:55:21.493Z,10.13
2019-01-15T02:57:50.900Z,8.17
2019-01-15T03:00:27.199Z,9.97
2019-01-15T03:02:56.764Z,9.60
2019-01-15T03:05:26.355Z,10.87
2019-01-15T03:07:55.702Z,13.70
2019-01-15T03:10:25.425Z,12.23
2019-01-15T03:12:56.644Z,8.93
2019-01-15T03:15:26.018Z,8.83
2019-01-15T03:17:55.408Z,15.87
2019-01-15T03:20:24.866Z,12.10
2019-01-15T03:22:54.581Z,16.00
2019-01-15T03:25:24.130Z,11.30
2019-01-15T03:27:53.666Z,9.77
2019-01-15T03:30:26.065Z,7.43
2019-01-15T03:32:55.460Z,12.33
2019-01-15T03:35:24.960Z,11.07
2019-01-15T03:37:54.540Z,10.53
2019-01-15T03:40:26.816Z,11.33
2019-01-15T03:43:03.655Z,15.20
2019-01-15T03:45:27.284Z,10.27
2019-01-15T03:47:56.610Z,10.77
2019-01-15T03:50:25.972Z,11.03
2019-01-15T03:52:55.343Z,10.43
2019-01-15T03:55:24.960Z,15.17
2019-01-15T03:57:54.351Z,11.07
2019-01-15T04:00:27.284Z,16.93
2019-01-15T04:02:57.554Z,13.77
2019-01-15T04:05:27.111Z,17.53
2019-01-15T04:08:00.059Z,21.57
2019-01-15T04:10:29.864Z,15.53
2019-01-15T04:12:59.464Z,18.73
2019-01-15T04:15:29.256Z,15.93
2019-01-15T04:17:58.679Z,15.53
2019-01-15T04:20:27.934Z,22.13
2019-01-15T04:22:57.458Z,18.47
2019-01-15T04:25:26.905Z,16.57
2019-01-15T04:27:56.315Z,16.73
2019-01-15T04:30:25.636Z,22.20
2019-01-15T04:32:54.941Z,20.13
2019-01-15T04:35:24.562Z,17.67
2019-01-15T04:37:54.002Z,19.97
2019-01-15T04:40:23.747Z,21.17
2019-01-15T04:42:53.338Z,21.03
2019-01-15T04:45:24.259Z,16.23
2019-01-15T04:47:53.841Z,16.87
2019-01-15T04:50:23.234Z,14.20
2019-01-15T04:52:55.843Z,16.17
2019-01-15T04:55:25.272Z,14.63
2019-01-15T04:57:54.567Z,15.20
2019-01-15T05:00:24.441Z,24.30
2019-01-15T05:02:55.209Z,17.77
2019-01-15T05:05:24.611Z,16.87
2019-01-15T05:07:53.977Z,18.73
2019-01-15T05:10:23.351Z,20.10
2019-01-15T05:12:52.691Z,19.17
2019-01-15T05:15:22.187Z,21.97
2019-01-15T05:17:51.491Z,18.87
2019-01-15T05:20:21.222Z,19.27
2019-01-15T05:22:50.556Z,16.33
2019-01-15T05:25:20.905Z,20.07
2019-01-15T05:27:50.791Z,14.73
2019-01-15T05:30:22.298Z,25.43
2019-01-15T05:32:51.731Z,17.03
2019-01-15T05:35:21.104Z,21.67
2019-01-15T05:37:50.600Z,21.33
2019-01-15T05:40:20.375Z,16.53
2019-01-15T05:42:49.679Z,18.17
2019-01-15T05:45:32.442Z,18.60
2019-01-15T05:48:08.248Z,17.60
2019-01-15T05:50:53.243Z,20.53
2019-01-15T05:53:22.992Z,19.60
2019-01-15T05:55:52.446Z,14.97
2019-01-15T05:58:21.812Z,18.20
2019-01-15T06:00:51.204Z,24.47
2019-01-15T06:03:20.607Z,15.10
2019-01-15T06:05:49.988Z,22.23
2019-01-15T06:08:19.329Z,20.00
2019-01-15T06:10:48.749Z,26.20
2019-01-15T06:13:18.119Z,25.53
2019-01-15T06:15:47.655Z,23.83
2019-01-15T06:18:17.052Z,22.43
2019-01-15T06:20:46.524Z,29.43
2019-01-15T06:23:15.936Z,28.70
2019-01-15T06:25:45.277Z,26.67
2019-01-15T06:28:14.670Z,25.47
2019-01-15T06:30:44.009Z,22.10
2019-01-15T06:33:13.408Z,16.93
2019-01-15T06:35:42.957Z,25.73
2019-01-15T06:38:12.365Z,25.47
2019-01-15T06:40:41.801Z,19.73
2019-01-15T06:43:11.296Z,25.53
2019-01-15T06:45:40.725Z,24.20
2019-01-15T06:48:10.186Z,21.97
2019-01-15T06:50:39.461Z,22.57
2019-01-15T06:53:08.866Z,20.03
2019-01-15T06:55:38.335Z,24.63
2019-01-15T06:58:07.858Z,20.10
2019-01-15T07:00:37.161Z,21.83
2019-01-15T07:03:06.651Z,22.40
2019-01-15T07:05:35.910Z,21.10
2019-01-15T07:08:05.310Z,27.43
2019-01-15T07:10:37.226Z,29.03
2019-01-15T07:13:06.757Z,34.13
2019-01-15T07:15:36.178Z,27.67
2019-01-15T07:18:05.787Z,32.83
2019-01-15T07:20:35.312Z,25.43
2019-01-15T07:23:04.565Z,41.60
2019-01-15T07:25:33.952Z,31.23
2019-01-15T07:28:03.393Z,25.40
2019-01-15T07:30:45.153Z,22.10
2019-01-15T07:33:14.728Z,23.97
2019-01-15T07:35:44.248Z,33.60
2019-01-15T07:38:13.639Z,26.57
2019-01-15T07:40:42.972Z,23.10
2019-01-15T07:43:12.184Z,22.70
2019-01-15T07:45:41.701Z,27.43
2019-01-15T07:48:11.096Z,22.60
2019-01-15T07:50:40.455Z,22.13
2019-01-15T07:53:09.983Z,28.67
2019-01-15T07:55:39.387Z,21.00
2019-01-15T07:58:08.709Z,25.33
2019-01-15T08:00:38.199Z,22.20
2019-01-15T08:03:08.098Z,25.43
2019-01-15T08:05:37.471Z,28.90
2019-01-15T08:08:06.983Z,31.43
2019-01-15T08:10:36.383Z,24.97
2019-01-15T08:13:06.111Z,20.23
2019-01-15T08:15:35.489Z,22.70
2019-01-15T08:18:05.028Z,21.83
2019-01-15T08:20:34.247Z,28.13
2019-01-15T08:23:03.568Z,19.83
2019-01-15T08:25:32.994Z,23.87
2019-01-15T08:28:02.420Z,25.70
2019-01-15T08:30:34.593Z,31.80
2019-01-15T08:33:04.038Z,33.30
2019-01-15T08:35:33.461Z,28.43
2019-01-15T08:38:03.047Z,26.50
2019-01-15T08:40:32.315Z,31.33
2019-01-15T08:43:01.609Z,23.70
2019-01-15T08:45:30.947Z,28.70
2019-01-15T08:48:04.541Z,28.93
2019-01-15T08:50:34.333Z,25.20
2019-01-15T08:53:03.732Z,35.40
2019-01-15T08:55:33.062Z,21.63
2019-01-15T08:58:02.471Z,26.07
2019-01-15T09:00:32.020Z,24.27
2019-01-15T09:03:01.347Z,28.97
2019-01-15T09:05:30.711Z,26.57
2019-01-15T09:08:00.097Z,28.87
2019-01-15T09:10:29.503Z,24.10
2019-01-15T09:12:59.099Z,23.47
2019-01-15T09:15:28.619Z,29.07
2019-01-15T09:17:57.968Z,25.83
2019-01-15T09:20:27.406Z,25.30
2019-01-15T09:22:56.983Z,24.10
2019-01-15T09:25:26.290Z,21.23
2019-01-15T09:27:55.628Z,24.20
2019-01-15T09:30:24.916Z,28.87
2019-01-15T09:32:54.310Z,22.10
2019-01-15T09:35:23.692Z,30.17
2019-01-15T09:37:53.306Z,23.33
2019-01-15T09:40:24.222Z,21.53
2019-01-15T09:42:53.474Z,28.17
2019-01-15T09:45:24.443Z,27.07
2019-01-15T09:48:19.543Z,21.23
2019-01-15T09:50:48.927Z,28.77
2019-01-15T09:53:18.252Z,27.70
2019-01-15T09:55:47.674Z,22.93
2019-01-15T09:58:17.374Z,27.70
2019-01-15T10:00:46.693Z,23.70
2019-01-15T10:03:16.210Z,26.23
2019-01-15T10:05:45.590Z,26.13
2019-01-15T10:08:15.073Z,21.93
2019-01-15T10:10:46.797Z,32.87
2019-01-15T10:13:16.301Z,29.00
2019-01-15T10:15:45.807Z,23.03
2019-01-15T10:18:15.350Z,26.13
2019-01-15T10:20:44.774Z,22.50
2019-01-15T10:23:14.171Z,32.13
2019-01-15T10:25:44.260Z,28.60
2019-01-15T10:28:15.338Z,32.70
2019-01-15T10:31:13.618Z,34.27
2019-01-15T10:33:57.042Z,29.93
2019-01-15T10:36:24.740Z,28.03
2019-01-15T10:38:54.133Z,33.90
2019-01-15T10:41:23.499Z,39.93
2019-01-15T10:43:52.905Z,39.00
2019-01-15T10:46:22.265Z,40.33
2019-01-15T10:48:51.701Z,43.90
2019-01-15T10:51:23.152Z,39.67
2019-01-15T10:53:53.485Z,36.83
2019-01-15T10:56:22.840Z,38.47
2019-01-15T10:58:52.567Z,38.63
2019-01-15T11:01:22.073Z,30.97
2019-01-15T11:03:51.643Z,44.87
2019-01-15T11:06:21.128Z,42.00
2019-01-15T11:08:50.551Z,37.03
2019-01-15T11:11:20.036Z,41.63
2019-01-15T11:13:49.479Z,46.17
2019-01-15T11:16:18.899Z,41.80
2019-01-15T11:18:48.605Z,30.73
2019-01-15T11:21:17.929Z,35.30
2019-01-15T11:23:47.534Z,46.03
2019-01-15T11:26:16.958Z,42.20
2019-01-15T11:28:46.286Z,46.30
2019-01-15T11:31:15.667Z,41.27
2019-01-15T11:33:45.114Z,40.60
2019-01-15T11:36:14.547Z,35.50
2019-01-15T11:38:44.171Z,38.53
2019-01-15T11:41:13.538Z,41.83
2019-01-15T11:43:42.822Z,41.33
2019-01-15T11:46:12.389Z,44.13
2019-01-15T11:48:43.288Z,42.17
2019-01-15T11:51:12.723Z,36.17
2019-01-15T11:53:42.252Z,53.60
2019-01-15T11:56:11.643Z,41.63
2019-01-15T11:58:43.448Z,40.67
2019-01-15T12:01:18.057Z,48.57
2019-01-15T12:04:08.709Z,45.90
2019-01-15T12:07:00.210Z,42.00
2019-01-15T12:09:47.415Z,34.77
2019-01-15T12:12:50.828Z,28.87
2019-01-15T12:15:40.991Z,40.80
2019-01-15T12:18:28.488Z,27.60
2019-01-15T12:21:25.835Z,30.07
2019-01-15T12:24:22.649Z,30.67
2019-01-15T12:27:16.818Z,25.23
2019-01-15T12:30:04.852Z,27.27
2019-01-15T12:32:56.443Z,28.20
2019-01-15T12:35:56.337Z,18.03
2019-01-15T12:38:43.516Z,18.00
2019-01-15T12:41:30.523Z,16.13
2019-01-15T12:44:08.996Z,16.50
2019-01-15T12:46:56.105Z,27.37
2019-01-15T12:49:44.503Z,22.07
2019-01-15T12:52:31.827Z,17.37
2019-01-15T12:55:25.010Z,23.87
2019-01-15T12:58:11.836Z,15.70
2019-01-15T13:01:06.539Z,18.13
2019-01-15T13:03:53.399Z,18.20
2019-01-15T13:06:40.512Z,19.87
2019-01-15T13:09:28.840Z,21.90
2019-01-15T13:12:15.767Z,21.83
2019-01-15T13:15:07.019Z,20.13
2019-01-15T13:18:10.645Z,21.57
2019-01-15T13:20:59.371Z,19.40
2019-01-15T13:23:59.879Z,16.80
2019-01-15T13:26:43.950Z,17.20
2019-01-15T13:29:31.537Z,21.47
2019-01-15T13:32:13.471Z,19.87
2019-01-15T13:35:11.068Z,17.20
2019-01-15T13:38:05.432Z,17.00
2019-01-15T13:41:12.163Z,19.50
2019-01-15T13:44:09.763Z,17.93
2019-01-15T13:47:00.810Z,21.27
2019-01-15T13:50:04.589Z,15.77
2019-01-15T13:52:44.070Z,18.83
2019-01-15T13:55:35.441Z,16.70
2019-01-15T13:58:26.533Z,21.70
2019-01-15T14:01:13.891Z,17.43
2019-01-15T14:04:10.709Z,20.30
2019-01-15T14:07:01.815Z,17.53
2019-01-15T14:09:56.412Z,17.90
2019-01-15T14:12:44.691Z,20.17
2019-01-15T14:15:39.012Z,26.73
2019-01-15T14:18:42.775Z,26.23
2019-01-15T14:21:43.192Z,26.30
2019-01-15T14:24:28.511Z,24.43
2019-01-15T14:27:09.971Z,31.80
2019-01-15T14:29:50.004Z,22.97
2019-01-15T14:32:37.869Z,30.03
2019-01-15T14:35:25.140Z,29.37
2019-01-15T14:38:13.505Z,21.23
2019-01-15T14:41:00.755Z,27.87
2019-01-15T14:43:41.211Z,24.13
2019-01-15T14:46:28.300Z,34.90
2019-01-15T14:49:07.176Z,140.73
2019-01-15T14:51:48.132Z,31.83
2019-01-15T14:54:39.315Z,46.73
2019-01-15T14:57:27.578Z,36.90
2019-01-15T15:00:14.632Z,47.80
2019-01-15T15:02:53.842Z,41.73
2019-01-15T15:05:50.935Z,33.53
2019-01-15T15:08:42.074Z,46.93
2019-01-15T15:11:29.532Z,37.03
2019-01-15T15:14:20.731Z,31.07
2019-01-15T15:17:09.250Z,29.27
2019-01-15T15:19:55.056Z,27.60
2019-01-15T15:22:52.802Z,25.80
2019-01-15T15:25:30.139Z,19.13
2019-01-15T15:28:15.911Z,15.13
2019-01-15T15:31:07.498Z,17.13
2019-01-15T15:33:54.697Z,26.93
2019-01-15T15:36:54.876Z,26.87
2019-01-15T15:39:42.425Z,57.73
2019-01-15T15:42:30.988Z,22.00
2019-01-15T15:45:15.844Z,19.80
2019-01-15T15:47:56.380Z,21.23
2019-01-15T15:50:45.193Z,23.40
2019-01-15T15:53:33.408Z,18.00
2019-01-15T15:56:25.401Z,24.60
2019-01-15T15:59:13.930Z,15.87
2019-01-15T16:01:58.291Z,18.93
2019-01-15T16:04:52.727Z,18.27
2019-01-15T16:07:39.651Z,22.90
2019-01-15T16:10:33.298Z,24.30
2019-01-15T16:13:24.756Z,26.07
2019-01-15T16:16:18.888Z,24.00
2019-01-15T16:19:05.820Z,24.30
2019-01-15T16:21:52.950Z,36.87
2019-01-15T16:24:40.394Z,32.80
2019-01-15T16:27:38.098Z,31.53
2019-01-15T16:30:29.519Z,36.77
2019-01-15T16:33:16.710Z,33.03
2019-01-15T16:36:03.999Z,37.53
2019-01-15T16:39:01.514Z,34.27
2019-01-15T16:41:52.675Z,46.97
2019-01-15T16:44:39.873Z,39.10
2019-01-15T16:47:34.155Z,43.47
2019-01-15T16:50:23.970Z,39.23
2019-01-15T16:53:11.251Z,41.30
2019-01-15T16:56:02.486Z,42.00
2019-01-15T16:58:42.106Z,41.93
2019-01-15T17:01:29.149Z,41.43
2019-01-15T17:04:32.605Z,37.23
2019-01-15T17:07:26.893Z,35.77
2019-01-15T17:10:24.176Z,41.83
2019-01-15T17:13:15.426Z,37.30
2019-01-15T17:16:13.883Z,31.90
2019-01-15T17:19:23.040Z,48.10
2019-01-15T17:22:10.232Z,45.97
2019-01-15T17:25:07.722Z,46.57
2019-01-15T17:27:54.596Z,43.47
2019-01-15T17:30:42.331Z,45.13
2019-01-15T17:33:39.580Z,33.33
2019-01-15T17:36:26.644Z,48.83
2019-01-15T17:39:14.242Z,43.73
2019-01-15T17:42:03.195Z,44.43
2019-01-15T17:44:57.585Z,32.17
2019-01-15T17:48:01.295Z,37.60
2019-01-15T17:50:49.612Z,45.23
2019-01-15T17:53:36.674Z,38.93
2019-01-15T17:56:37.425Z,39.83
2019-01-15T17:59:24.717Z,41.03
2019-01-15T18:02:13.061Z,43.13
2019-01-15T18:05:07.710Z,50.23
2019-01-15T18:08:11.134Z,35.37
2019-01-15T18:10:58.622Z,42.33
2019-01-15T18:14:02.341Z,34.33
2019-01-15T18:16:53.609Z,31.43
2019-01-15T18:19:41.993Z,39.80
2019-01-15T18:22:38.824Z,30.97
2019-01-15T18:25:25.793Z,39.07
2019-01-15T18:28:06.269Z,37.80
2019-01-15T18:30:54.783Z,39.27
2019-01-15T18:33:46.262Z,29.00
2019-01-15T18:36:37.535Z,37.10
2019-01-15T18:39:27.519Z,30.80
2019-01-15T18:42:15.843Z,41.83
2019-01-15T18:45:07.116Z,37.27
2019-01-15T18:47:54.322Z,33.13
2019-01-15T18:50:39.683Z,35.63
2019-01-15T18:53:27.130Z,37.40
2019-01-15T18:56:27.808Z,36.50
2019-01-15T18:59:15.222Z,39.53
2019-01-15T19:02:02.620Z,27.17
2019-01-15T19:04:49.743Z,27.57
2019-01-15T19:07:41.909Z,23.17
2019-01-15T19:10:29.144Z,22.07
2019-01-15T19:13:32.655Z,21.50
2019-01-15T19:16:27.109Z,26.47
2019-01-15T19:19:19.007Z,29.37
2019-01-15T19:22:26.076Z,22.53
2019-01-15T19:25:13.259Z,26.70
2019-01-15T19:28:07.901Z,35.47
2019-01-15T19:31:08.585Z,33.77
2019-01-15T19:34:06.129Z,23.23
2019-01-15T19:36:54.998Z,23.97
2019-01-15T19:39:31.425Z,36.97
2019-01-15T19:42:35.063Z,25.83
2019-01-15T19:45:18.278Z,30.47
2019-01-15T19:48:09.545Z,22.63
2019-01-15T19:50:58.078Z,27.07
2019-01-15T19:53:46.902Z,27.67
2019-01-15T19:56:34.126Z,26.03
2019-01-15T19:59:25.476Z,18.77
2019-01-15T20:02:18.301Z,24.43
2019-01-15T20:05:05.715Z,17.67
2019-01-15T20:07:46.690Z,16.33
2019-01-15T20:10:44.269Z,22.27
2019-01-15T20:13:48.788Z,64.40
2019-01-15T20:16:37.926Z,16.13
2019-01-15T20:19:25.202Z,12.60
2019-01-15T20:22:20.896Z,19.33
2019-01-15T20:25:08.235Z,19.97
2019-01-15T20:27:53.451Z,17.33
2019-01-15T20:30:40.685Z,21.77
2019-01-15T20:33:28.870Z,14.43
2019-01-15T20:36:23.575Z,18.93
2019-01-15T20:39:01.497Z,18.63
2019-01-15T20:42:08.145Z,19.83
2019-01-15T20:44:55.802Z,17.47
2019-01-15T20:47:56.696Z,19.67
2019-01-15T20:51:03.657Z,19.93
2019-01-15T20:53:45.607Z,23.30
2019-01-15T20:56:32.617Z,23.80
2019-01-15T20:59:32.966Z,24.10
2019-01-15T21:02:33.836Z,18.73
2019-01-15T21:05:22.436Z,15.40
2019-01-15T21:08:09.958Z,20.63
2019-01-15T21:11:07.324Z,12.03
2019-01-15T21:14:05.859Z,17.97
2019-01-15T21:16:52.920Z,17.07
2019-01-15T21:19:41.324Z,15.53
2019-01-15T21:22:28.310Z,15.73
2019-01-15T21:25:19.615Z,14.00
2019-01-15T21:28:06.713Z,14.10
2019-01-15T21:30:53.919Z,14.50
2019-01-15T21:33:31.845Z,15.30
2019-01-15T21:36:19.012Z,15.50
2019-01-15T21:39:06.281Z,20.70
2019-01-15T21:41:57.766Z,13.27
2019-01-15T21:44:49.271Z,14.10
2019-01-15T21:47:40.307Z,17.83
2019-01-15T21:50:46.227Z,19.70
2019-01-15T21:53:40.615Z,15.67
2019-01-15T21:56:28.899Z,12.60
2019-01-15T21:59:18.780Z,15.03
2019-01-15T22:02:06.031Z,15.43
2019-01-15T22:04:56.253Z,13.77
2019-01-15T22:07:56.915Z,13.63
2019-01-15T22:10:48.280Z,14.80
2019-01-15T22:13:37.413Z,19.73
2019-01-15T22:16:31.555Z,15.77
2019-01-15T22:19:18.807Z,14.47
2019-01-15T22:22:10.246Z,23.47
2019-01-15T22:25:01.900Z,23.77
2019-01-15T22:27:43.329Z,14.60
2019-01-15T22:30:24.663Z,17.30
2019-01-15T22:33:09.964Z,17.83
2019-01-15T22:35:57.265Z,15.60
2019-01-15T22:38:51.834Z,16.13
2019-01-15T22:41:59.147Z,8.77
2019-01-15T22:44:46.347Z,16.20
2019-01-15T22:47:33.778Z,12.33
2019-01-15T22:50:22.144Z,12.73
2019-01-15T22:52:59.255Z,14.30
2019-01-15T22:56:03.028Z,13.43
2019-01-15T22:58:41.467Z,15.17
2019-01-15T23:01:35.756Z,13.57
2019-01-15T23:04:19.936Z,17.07
2019-01-15T23:07:14.583Z,17.77
2019-01-15T23:10:05.663Z,19.00
2019-01-15T23:12:43.704Z,21.90
2019-01-15T23:15:35.194Z,28.03
2019-01-15T23:18:23.255Z,23.00
2019-01-15T23:21:30.084Z,19.27
2019-01-15T23:24:17.286Z,20.23
2019-01-15T23:27:05.753Z,19.67
2019-01-15T23:29:54.019Z,23.50
2019-01-15T23:32:45.632Z,20.97
2019-01-15T23:35:32.976Z,22.03
2019-01-15T23:38:20.418Z,21.17
2019-01-15T23:41:15.693Z,32.50
2019-01-15T23:44:03.120Z,23.40
2019-01-15T23:47:03.541Z,20.83
2019-01-15T23:50:01.135Z,26.23
2019-01-15T23:52:58.773Z,13.77
2019-01-15T23:55:59.591Z,15.60
2019-01-15T23:58:46.810Z,20.90
